Time;durP1;ratioP1;P1;durP2;ratioP2;P2;SDS_P1;SDS_P2;PMS_P1;PMS_P2;Temp;Humidity;BMP_temperature;BMP_pressure;BME280_temperature;BME280_humidity;BME280_pressure;Samples;Min_cycle;Max_cycle;Signal;HPM_P1;HPM_P2
2022/04/14 00:00:34;;;;;;;49.60;23.50;;;;;;;;;;10437061;28;20057;-72
2022/04/14 00:05:41;;;;;;;45.60;22.63;;;;;;;;;;10437344;28;20077;-71
2022/04/14 00:10:44;;;;;;;38.95;21.52;;;;;;;;;;10438203;28;20061;-71
2022/04/14 00:15:47;;;;;;;38.47;20.90;;;;;;;;;;10476572;28;20128;-71
2022/04/14 00:20:50;;;;;;;34.35;20.00;;;;;;;;;;10435330;28;20088;-70
2022/04/14 00:25:54;;;;;;;36.92;20.30;;;;;;;;;;10436333;28;20084;-71
2022/04/14 00:30:58;;;;;;;37.58;20.25;;;;;;;;;;10435574;28;20049;-71
2022/04/14 00:36:00;;;;;;;42.78;22.83;;;;;;;;;;10434942;28;20052;-71
2022/04/14 00:41:05;;;;;;;37.60;21.45;;;;;;;;;;10419368;28;20065;-72
2022/04/14 00:46:08;;;;;;;37.87;20.87;;;;;;;;;;10447378;28;20048;-70
2022/04/14 00:51:10;;;;;;;37.92;21.25;;;;;;;;;;10434239;28;20049;-71
2022/04/14 00:56:14;;;;;;;40.42;22.20;;;;;;;;;;10434348;28;20057;-71
2022/04/14 01:01:17;;;;;;;35.65;21.80;;;;;;;;;;10435539;28;20386;-72
2022/04/14 01:06:21;;;;;;;43.60;22.88;;;;;;;;;;10435418;28;20509;-71
2022/04/14 01:11:24;;;;;;;40.00;22.48;;;;;;;;;;10446268;28;20103;-71
2022/04/14 01:16:27;;;;;;;40.90;22.25;;;;;;;;;;10450981;28;20168;-71
2022/04/14 01:21:33;;;;;;;41.63;22.88;;;;;;;;;;10431354;28;20053;-71
2022/04/14 01:26:38;;;;;;;37.20;21.52;;;;;;;;;;10445559;28;20202;-71
2022/04/14 01:31:40;;;;;;;40.45;21.77;;;;;;;;;;10433174;28;20041;-71
2022/04/14 01:36:43;;;;;;;39.55;22.70;;;;;;;;;;10431411;28;20053;-70
2022/04/14 01:41:47;;;;;;;44.13;24.17;;;;;;;;;;10446518;28;20045;-70
2022/04/14 01:46:49;;;;;;;36.63;23.17;;;;;;;;;;10472565;28;20090;-71
2022/04/14 01:51:52;;;;;;;41.90;23.45;;;;;;;;;;10433401;28;20103;-71
2022/04/14 01:56:55;;;;;;;45.63;24.20;;;;;;;;;;10433738;28;20399;-71
2022/04/14 02:01:58;;;;;;;47.08;24.15;;;;;;;;;;10433108;28;20049;-71
2022/04/14 02:07:02;;;;;;;38.88;23.00;;;;;;;;;;10466838;28;20100;-71
2022/04/14 02:12:07;;;;;;;39.33;23.33;;;;;;;;;;10474194;28;20041;-70
2022/04/14 02:17:09;;;;;;;44.80;24.23;;;;;;;;;;10436633;28;20091;-71
2022/04/14 02:22:11;;;;;;;46.15;24.83;;;;;;;;;;10433239;28;20222;-71
2022/04/14 02:27:16;;;;;;;45.67;24.48;;;;;;;;;;10433178;28;20075;-71
2022/04/14 02:32:18;;;;;;;46.80;23.88;;;;;;;;;;10431029;28;20048;-70
2022/04/14 02:37:21;;;;;;;44.53;24.15;;;;;;;;;;10440743;28;20509;-71
2022/04/14 02:42:25;;;;;;;42.35;23.92;;;;;;;;;;10444850;28;20257;-70
2022/04/14 02:47:28;;;;;;;43.72;23.48;;;;;;;;;;10452885;28;20450;-71
2022/04/14 02:52:31;;;;;;;41.67;23.10;;;;;;;;;;10442783;28;20043;-70
2022/04/14 02:57:34;;;;;;;39.70;23.17;;;;;;;;;;10449391;28;20037;-70
2022/04/14 03:02:37;;;;;;;37.85;22.63;;;;;;;;;;10438322;28;20053;-70
2022/04/14 03:07:40;;;;;;;47.90;23.45;;;;;;;;;;10439267;28;20053;-71
2022/04/14 03:12:46;;;;;;;42.55;21.92;;;;;;;;;;10440228;28;20068;-71
2022/04/14 03:17:50;;;;;;;40.75;23.25;;;;;;;;;;10464584;28;20370;-70
2022/04/14 03:22:52;;;;;;;42.55;21.65;;;;;;;;;;10448139;28;20064;-71
2022/04/14 03:27:56;;;;;;;39.60;21.17;;;;;;;;;;10439286;28;20049;-70
2022/04/14 03:32:58;;;;;;;36.65;21.30;;;;;;;;;;10440260;28;20041;-71
2022/04/14 03:38:01;;;;;;;44.33;20.70;;;;;;;;;;10437907;28;20061;-71
2022/04/14 03:43:05;;;;;;;42.40;21.02;;;;;;;;;;10452157;28;20074;-71
2022/04/14 03:48:08;;;;;;;37.70;21.52;;;;;;;;;;10453696;28;20049;-71
2022/04/14 03:53:10;;;;;;;42.58;21.30;;;;;;;;;;10437498;28;20218;-71
2022/04/14 03:58:15;;;;;;;40.20;21.05;;;;;;;;;;10437577;28;20069;-71
2022/04/14 04:03:17;;;;;;;34.75;21.15;;;;;;;;;;10438192;28;20057;-71
2022/04/14 04:08:20;;;;;;;43.35;21.85;;;;;;;;;;10438862;28;20088;-71
2022/04/14 04:13:24;;;;;;;36.30;20.65;;;;;;;;;;10465882;28;20052;-72
2022/04/14 04:18:26;;;;;;;39.22;21.27;;;;;;;;;;10466452;28;20053;-71
2022/04/14 04:23:29;;;;;;;35.78;19.95;;;;;;;;;;10438836;28;20047;-71
2022/04/14 04:28:33;;;;;;;35.53;20.35;;;;;;;;;;10438001;28;20092;-72
2022/04/14 04:33:35;;;;;;;34.47;19.10;;;;;;;;;;10437648;28;20042;-71
2022/04/14 04:38:38;;;;;;;33.40;19.35;;;;;;;;;;10436959;28;20049;-71
2022/04/14 04:43:42;;;;;;;34.17;18.48;;;;;;;;;;10439133;28;20226;-71
2022/04/14 04:48:45;;;;;;;30.92;17.83;;;;;;;;;;10437234;28;20091;-71
2022/04/14 04:53:47;;;;;;;33.25;19.23;;;;;;;;;;10435935;28;20200;-71
2022/04/14 04:58:51;;;;;;;31.23;17.70;;;;;;;;;;10435956;28;20053;-71
2022/04/14 05:03:53;;;;;;;35.35;18.13;;;;;;;;;;10436253;28;20081;-72
2022/04/14 05:08:56;;;;;;;35.97;18.80;;;;;;;;;;10451124;28;20056;-71
2022/04/14 05:13:59;;;;;;;27.95;17.10;;;;;;;;;;10437595;28;20155;-72
2022/04/14 05:19:02;;;;;;;29.27;16.90;;;;;;;;;;10477170;28;20245;-72
2022/04/14 05:24:05;;;;;;;31.98;17.65;;;;;;;;;;10439798;28;20243;-71
2022/04/14 05:29:09;;;;;;;27.23;16.63;;;;;;;;;;10433527;28;20325;-71
2022/04/14 05:34:11;;;;;;;29.60;17.43;;;;;;;;;;10435321;28;20060;-70
2022/04/14 05:39:15;;;;;;;30.00;16.63;;;;;;;;;;10434172;28;20087;-71
2022/04/14 05:44:20;;;;;;;30.90;17.08;;;;;;;;;;10431968;28;20218;-71
2022/04/14 05:49:22;;;;;;;26.20;16.77;;;;;;;;;;10457930;28;20127;-71
2022/04/14 05:54:24;;;;;;;29.48;15.80;;;;;;;;;;10451214;28;20042;-71
2022/04/14 05:59:28;;;;;;;27.63;15.90;;;;;;;;;;10432334;28;20099;-70
2022/04/14 06:04:30;;;;;;;30.15;15.95;;;;;;;;;;10434632;28;20049;-72
2022/04/14 06:09:33;;;;;;;25.48;15.32;;;;;;;;;;10432478;28;20045;-68
2022/04/14 06:14:37;;;;;;;24.55;14.63;;;;;;;;;;10429049;28;20076;-72
2022/04/14 06:19:39;;;;;;;38.87;16.53;;;;;;;;;;10433306;28;20099;-70
2022/04/14 06:24:41;;;;;;;27.05;15.43;;;;;;;;;;10430818;28;20054;-70
2022/04/14 06:29:45;;;;;;;25.98;15.93;;;;;;;;;;10432615;28;20045;-73
2022/04/14 06:34:48;;;;;;;21.90;13.25;;;;;;;;;;10432538;28;20053;-68
2022/04/14 06:39:51;;;;;;;23.67;13.77;;;;;;;;;;10431604;28;20076;-73
2022/04/14 06:45:00;;;;;;;20.17;12.80;;;;;;;;;;10432578;28;20109;-70
2022/04/14 06:50:02;;;;;;;25.08;13.45;;;;;;;;;;10430645;28;20053;-74
2022/04/14 06:55:05;;;;;;;17.73;11.30;;;;;;;;;;10430621;28;20042;-73
2022/04/14 07:00:10;;;;;;;21.35;11.73;;;;;;;;;;10430752;28;20395;-71
2022/04/14 07:05:13;;;;;;;20.92;11.23;;;;;;;;;;10431279;28;20069;-73
2022/04/14 07:10:16;;;;;;;17.88;11.55;;;;;;;;;;10434899;28;20351;-71
2022/04/14 07:15:20;;;;;;;16.60;11.18;;;;;;;;;;10468444;28;20060;-74
2022/04/14 07:20:23;;;;;;;15.38;10.68;;;;;;;;;;10433552;28;20041;-74
2022/04/14 07:25:25;;;;;;;19.25;11.10;;;;;;;;;;10438401;28;20038;-74
2022/04/14 07:30:29;;;;;;;14.40;10.60;;;;;;;;;;10438834;28;20068;-71
2022/04/14 07:35:32;;;;;;;17.60;10.82;;;;;;;;;;10437953;28;20068;-73
2022/04/14 07:40:35;;;;;;;19.83;11.60;;;;;;;;;;10439097;28;20359;-72
2022/04/14 07:45:42;;;;;;;14.88;10.35;;;;;;;;;;10438681;28;20099;-73
2022/04/14 07:50:44;;;;;;;14.95;10.38;;;;;;;;;;10451301;28;20072;-71
2022/04/14 07:55:47;;;;;;;15.00;10.27;;;;;;;;;;10437358;28;20045;-68
2022/04/14 08:00:51;;;;;;;13.82;9.35;;;;;;;;;;10437677;28;20042;-71
2022/04/14 08:05:53;;;;;;;11.25;9.48;;;;;;;;;;10438545;28;20072;-71
2022/04/14 08:10:56;;;;;;;17.67;10.02;;;;;;;;;;10452353;28;20052;-70
2022/04/14 08:16:03;;;;;;;17.00;10.30;;;;;;;;;;10479074;28;20218;-72
2022/04/14 08:21:06;;;;;;;13.55;9.43;;;;;;;;;;10452172;28;20061;-72
2022/04/14 08:26:10;;;;;;;14.77;9.80;;;;;;;;;;10437139;28;20328;-72
2022/04/14 08:31:14;;;;;;;11.68;9.07;;;;;;;;;;10435765;28;20076;-69
2022/04/14 08:36:17;;;;;;;14.85;9.65;;;;;;;;;;10434439;28;20048;-73
2022/04/14 08:41:24;;;;;;;16.05;9.30;;;;;;;;;;10435360;28;20233;-71
2022/04/14 08:46:29;;;;;;;15.37;11.70;;;;;;;;;;10435356;28;20390;-70
2022/04/14 08:51:35;;;;;;;15.60;9.43;;;;;;;;;;10435124;28;20046;-71
2022/04/14 08:56:38;;;;;;;14.53;10.03;;;;;;;;;;10447566;28;20092;-68
2022/04/14 09:01:42;;;;;;;14.70;9.57;;;;;;;;;;10433417;28;20062;-71
2022/04/14 09:06:45;;;;;;;14.25;9.73;;;;;;;;;;10433860;28;20049;-73
2022/04/14 09:11:47;;;;;;;12.60;9.55;;;;;;;;;;10432857;28;20141;-73
2022/04/14 09:16:51;;;;;;;12.30;9.15;;;;;;;;;;10468036;28;20099;-73
2022/04/14 09:22:00;;;;;;;16.08;9.68;;;;;;;;;;10439743;28;20065;-71
2022/04/14 09:27:02;;;;;;;15.82;10.15;;;;;;;;;;10431294;28;20080;-73
2022/04/14 09:32:07;;;;;;;11.43;10.15;;;;;;;;;;10432575;28;20056;-73
2022/04/14 09:37:11;;;;;;;17.60;11.02;;;;;;;;;;10428714;28;20260;-71
2022/04/14 09:42:14;;;;;;;22.40;12.27;;;;;;;;;;10452921;28;20288;-72
2022/04/14 09:47:38;;;;;;;19.40;12.90;;;;;;;;;;10443198;28;20170;-72
2022/04/14 09:53:02;;;;;;;20.27;14.23;;;;;;;;;;10432764;28;20054;-73
2022/04/14 09:58:10;;;;;;;24.05;15.00;;;;;;;;;;10445825;28;20053;-74
2022/04/14 10:03:15;;;;;;;22.45;14.77;;;;;;;;;;10431641;28;20042;-69
2022/04/14 10:08:19;;;;;;;25.08;15.25;;;;;;;;;;10433141;28;20061;-74
2022/04/14 10:13:21;;;;;;;27.10;15.90;;;;;;;;;;10456326;28;20040;-72
2022/04/14 10:18:25;;;;;;;25.20;16.10;;;;;;;;;;10428007;28;20060;-71
2022/04/14 10:23:28;;;;;;;26.95;17.02;;;;;;;;;;10432728;28;20348;-71
2022/04/14 10:28:31;;;;;;;26.15;16.67;;;;;;;;;;10431977;28;20045;-73
2022/04/14 10:33:35;;;;;;;;;;;;;;;;;;10431330;28;20352;-72
2022/04/14 10:38:40;;;;;;;30.05;16.75;;;;;;;;;;10431634;28;19991;-73
2022/04/14 10:43:44;;;;;;;27.42;16.42;;;;;;;;;;10430726;28;20284;-68
2022/04/14 10:48:50;;;;;;;27.95;17.17;;;;;;;;;;10427714;28;20045;-73
2022/04/14 10:53:59;;;;;;;30.23;17.60;;;;;;;;;;10445877;28;20044;-71
2022/04/14 10:59:02;;;;;;;28.65;16.80;;;;;;;;;;10437732;28;20045;-74
2022/04/14 11:04:23;;;;;;;27.17;17.00;;;;;;;;;;10438724;28;20136;-73
2022/04/14 11:09:48;;;;;;;29.02;15.93;;;;;;;;;;10439816;28;20053;-73
2022/04/14 11:14:56;;;;;;;24.85;13.85;;;;;;;;;;10432453;28;20069;-73
2022/04/14 11:20:13;;;;;;;26.77;16.05;;;;;;;;;;10446282;28;20056;-70
2022/04/14 11:25:43;;;;;;;24.83;13.82;;;;;;;;;;10438967;28;20332;-69
2022/04/14 11:30:53;;;;;;;27.75;15.68;;;;;;;;;;10451230;28;20083;-75
2022/04/14 11:36:07;;;;;;;29.27;15.80;;;;;;;;;;10438864;28;20049;-70
2022/04/14 11:41:29;;;;;;;30.42;14.93;;;;;;;;;;10437844;28;20057;-71
2022/04/14 11:46:33;;;;;;;34.08;15.75;;;;;;;;;;10449946;28;20091;-73
2022/04/14 11:51:43;;;;;;;29.17;15.30;;;;;;;;;;10437607;28;20209;-71
2022/04/14 11:56:50;;;;;;;30.33;16.33;;;;;;;;;;10436982;28;20052;-73
2022/04/14 12:01:52;;;;;;;31.13;16.00;;;;;;;;;;10453016;28;20049;-71
2022/04/14 12:06:57;;;;;;;43.55;17.13;;;;;;;;;;10434406;28;20072;-70
2022/04/14 12:12:09;;;;;;;28.50;16.05;;;;;;;;;;10435684;28;20344;-72
2022/04/14 12:17:12;;;;;;;31.65;16.77;;;;;;;;;;10433088;28;20045;-69
2022/04/14 12:22:16;;;;;;;28.30;16.92;;;;;;;;;;10436065;28;20344;-73
2022/04/14 12:27:22;;;;;;;26.08;15.40;;;;;;;;;;10435164;28;20049;-73
2022/04/14 12:32:27;;;;;;;34.70;16.70;;;;;;;;;;10447256;28;20050;-71
2022/04/14 12:37:38;;;;;;;29.98;16.05;;;;;;;;;;10435139;28;20049;-72
2022/04/14 12:42:43;;;;;;;26.52;14.82;;;;;;;;;;10465628;28;20061;-72
2022/04/14 12:47:45;;;;;;;;;;;;;;;;;;10439822;28;20065;-69
2022/04/14 12:52:55;;;;;;;25.83;15.48;;;;;;;;;;10435445;28;19944;-72
2022/04/14 12:58:15;;;;;;;27.80;14.20;;;;;;;;;;10456105;28;20324;-69
2022/04/14 13:03:19;;;;;;;31.13;14.90;;;;;;;;;;10433508;28;20276;-69
2022/04/14 13:08:33;;;;;;;26.35;15.65;;;;;;;;;;10437861;28;20217;-68
2022/04/14 13:13:36;;;;;;;31.00;16.05;;;;;;;;;;10431978;28;20044;-72
2022/04/14 13:18:38;;;;;;;26.35;13.98;;;;;;;;;;10433270;28;20104;-71
2022/04/14 13:23:41;;;;;;;32.45;17.75;;;;;;;;;;10433124;28;20053;-71
2022/04/14 13:28:44;;;;;;;30.65;19.75;;;;;;;;;;10432553;28;20060;-71
2022/04/14 13:33:47;;;;;;;36.08;19.35;;;;;;;;;;10433071;28;20048;-71
2022/04/14 13:38:51;;;;;;;33.45;18.17;;;;;;;;;;10431067;28;20065;-74
2022/04/14 13:43:54;;;;;;;35.00;19.52;;;;;;;;;;10437796;28;20252;-72
2022/04/14 13:48:56;;;;;;;32.58;19.02;;;;;;;;;;10412406;28;20072;-71
2022/04/14 13:54:03;;;;;;;37.67;21.27;;;;;;;;;;10432689;28;20344;-72
2022/04/14 13:59:05;;;;;;;36.17;18.92;;;;;;;;;;10443528;28;20969;-74
2022/04/14 14:04:07;;;;;;;36.55;20.27;;;;;;;;;;10465541;28;20095;-72
2022/04/14 14:09:11;;;;;;;36.95;19.70;;;;;;;;;;10435635;28;20049;-71
2022/04/14 14:14:16;;;;;;;37.65;22.13;;;;;;;;;;10389939;28;20038;-70
2022/04/14 14:19:18;;;;;;;36.55;21.35;;;;;;;;;;10392146;28;20368;-68
2022/04/14 14:24:23;;;;;;;38.65;22.92;;;;;;;;;;10393261;28;20244;-71
2022/04/14 14:29:25;;;;;;;36.05;22.17;;;;;;;;;;10391593;28;20060;-68
2022/04/14 14:34:28;;;;;;;33.05;20.77;;;;;;;;;;10427477;28;20069;-70
2022/04/14 14:39:32;;;;;;;35.33;20.95;;;;;;;;;;10429863;28;20064;-67
2022/04/14 14:44:35;;;;;;;39.00;22.70;;;;;;;;;;10429063;28;20045;-73
2022/04/14 14:49:37;;;;;;;40.20;21.83;;;;;;;;;;10394393;28;20080;-68
2022/04/14 14:54:42;;;;;;;36.55;21.73;;;;;;;;;;10411284;28;20037;-69
2022/04/14 14:59:44;;;;;;;34.33;20.38;;;;;;;;;;10421002;28;20157;-73
2022/04/14 15:04:49;;;;;;;39.05;20.70;;;;;;;;;;10427576;28;20045;-73
2022/04/14 15:09:53;;;;;;;37.08;20.58;;;;;;;;;;10429481;28;20060;-70
2022/04/14 15:14:56;;;;;;;37.47;21.05;;;;;;;;;;10427202;28;20053;-72
2022/04/14 15:19:58;;;;;;;48.93;24.50;;;;;;;;;;10460134;28;20295;-71
2022/04/14 15:25:02;;;;;;;47.55;25.25;;;;;;;;;;10440701;28;20061;-71
2022/04/14 15:30:06;;;;;;;56.80;27.48;;;;;;;;;;10429913;28;20211;-72
2022/04/14 15:35:09;;;;;;;56.67;28.80;;;;;;;;;;10449748;28;20057;-71
2022/04/14 15:40:14;;;;;;;53.13;28.53;;;;;;;;;;10449975;28;20103;-72
2022/04/14 15:45:16;;;;;;;58.22;28.63;;;;;;;;;;10438552;28;20075;-71
2022/04/14 15:50:19;;;;;;;56.17;30.15;;;;;;;;;;10439824;28;20165;-70
2022/04/14 15:55:23;;;;;;;54.25;29.05;;;;;;;;;;10439176;28;20053;-70
2022/04/14 16:00:26;;;;;;;58.67;30.75;;;;;;;;;;10436087;28;20045;-72
2022/04/14 16:05:28;;;;;;;52.42;30.60;;;;;;;;;;10426007;28;20046;-72
2022/04/14 16:15:52;;;;;;;53.88;31.13;;;;;;;;;;10446921;28;20049;-69
2022/04/14 16:20:54;;;;;;;58.53;31.73;;;;;;;;;;10433158;28;20060;-68
2022/04/14 16:25:58;;;;;;;66.53;32.53;;;;;;;;;;10446353;28;20079;-73
2022/04/14 16:31:01;;;;;;;68.03;31.90;;;;;;;;;;10435165;28;20046;-71
2022/04/14 16:36:04;;;;;;;59.22;30.08;;;;;;;;;;10435464;28;20041;-71
2022/04/14 16:41:09;;;;;;;55.50;30.95;;;;;;;;;;10433534;28;20053;-73
2022/04/14 16:46:11;;;;;;;56.13;29.57;;;;;;;;;;10433634;28;20347;-69
2022/04/14 16:51:14;;;;;;;51.63;26.88;;;;;;;;;;10432534;28;20179;-71
2022/04/14 16:56:18;;;;;;;52.45;27.35;;;;;;;;;;10433663;28;20133;-70
2022/04/14 17:01:20;;;;;;;57.08;29.38;;;;;;;;;;10433912;28;20359;-71
2022/04/14 17:06:22;;;;;;;61.95;31.00;;;;;;;;;;10433613;28;20075;-72
2022/04/14 17:11:26;;;;;;;59.97;30.30;;;;;;;;;;10432526;28;20128;-70
2022/04/14 17:16:29;;;;;;;55.63;27.23;;;;;;;;;;10433900;28;20089;-72
2022/04/14 17:26:54;;;;;;;60.08;26.88;;;;;;;;;;10445200;28;20088;-68
2022/04/14 17:31:57;;;;;;;59.83;27.40;;;;;;;;;;10433175;28;20053;-70
2022/04/14 17:37:00;;;;;;;55.55;27.77;;;;;;;;;;10431360;28;20064;-69
2022/04/14 17:42:05;;;;;;;60.70;30.73;;;;;;;;;;10446119;28;20053;-71
2022/04/14 17:47:07;;;;;;;;;;;;;;;;;;10431358;28;20053;-69
2022/04/14 17:52:11;;;;;;;62.13;30.92;;;;;;;;;;10433041;28;19917;-71
2022/04/14 17:57:15;;;;;;;62.80;30.60;;;;;;;;;;10432643;28;20049;-71
2022/04/14 18:02:19;;;;;;;63.45;31.25;;;;;;;;;;10432922;28;20111;-71
2022/04/14 18:07:22;;;;;;;59.60;30.43;;;;;;;;;;10431312;28;20053;-74
2022/04/14 18:12:26;;;;;;;52.65;28.90;;;;;;;;;;10429059;28;20064;-74
2022/04/14 18:17:28;;;;;;;52.20;27.23;;;;;;;;;;10431026;28;20049;-69
2022/04/14 18:22:31;;;;;;;43.58;25.85;;;;;;;;;;10429771;28;20052;-71
2022/04/14 18:27:35;;;;;;;44.42;25.02;;;;;;;;;;10429155;28;20224;-73
2022/04/14 18:32:37;;;;;;;45.65;25.65;;;;;;;;;;10431257;28;20045;-72
2022/04/14 18:37:40;;;;;;;42.22;24.02;;;;;;;;;;10429174;28;20057;-75
2022/04/14 18:42:44;;;;;;;38.08;22.80;;;;;;;;;;10440764;28;20057;-72
2022/04/14 18:47:47;;;;;;;47.42;26.52;;;;;;;;;;10429482;28;20309;-73
2022/04/14 18:52:50;;;;;;;41.38;24.48;;;;;;;;;;10431091;28;20052;-73
2022/04/14 18:57:54;;;;;;;41.17;22.98;;;;;;;;;;10432862;28;20038;-72
2022/04/14 19:02:56;;;;;;;41.00;23.55;;;;;;;;;;10429028;28;20056;-71
2022/04/14 19:07:59;;;;;;;37.92;22.00;;;;;;;;;;10431029;28;20045;-71
2022/04/14 19:13:03;;;;;;;42.45;24.27;;;;;;;;;;10430332;28;20348;-74
2022/04/14 19:18:05;;;;;;;47.30;25.05;;;;;;;;;;10435883;28;20041;-70
2022/04/14 19:23:08;;;;;;;42.03;24.00;;;;;;;;;;10439315;28;20080;-70
2022/04/14 19:28:13;;;;;;;49.45;26.02;;;;;;;;;;10439849;28;20351;-68
2022/04/14 19:33:15;;;;;;;50.85;28.42;;;;;;;;;;10437216;28;20042;-71
2022/04/14 19:38:17;;;;;;;38.67;24.00;;;;;;;;;;10437792;28;20061;-69
2022/04/14 19:43:22;;;;;;;43.53;28.48;;;;;;;;;;10437440;28;20087;-71
2022/04/14 19:48:24;;;;;;;48.90;25.67;;;;;;;;;;10437635;28;20213;-73
2022/04/14 19:53:27;;;;;;;34.88;21.85;;;;;;;;;;10476784;28;20041;-71
2022/04/14 19:58:31;;;;;;;30.90;19.52;;;;;;;;;;10433538;28;20046;-71
2022/04/14 20:03:33;;;;;;;25.92;19.13;;;;;;;;;;10432234;28;20132;-72
2022/04/14 20:08:36;;;;;;;23.95;15.85;;;;;;;;;;10431179;28;20064;-72
2022/04/14 20:13:39;;;;;;;18.35;14.07;;;;;;;;;;10436409;28;20037;-70
2022/04/14 20:18:42;;;;;;;19.05;11.10;;;;;;;;;;10438387;28;20248;-69
2022/04/14 20:23:46;;;;;;;17.60;12.65;;;;;;;;;;10434476;28;20049;-69
2022/04/14 20:28:51;;;;;;;16.27;10.80;;;;;;;;;;10435386;28;20299;-69
2022/04/14 20:33:54;;;;;;;19.88;12.45;;;;;;;;;;10436013;28;20057;-71
2022/04/14 20:38:57;;;;;;;22.00;13.32;;;;;;;;;;10426955;28;20066;-71
2022/04/14 20:44:01;;;;;;;18.85;13.77;;;;;;;;;;10417881;28;20056;-70
2022/04/14 20:49:04;;;;;;;20.90;13.90;;;;;;;;;;10435854;28;20336;-68
2022/04/14 20:54:09;;;;;;;20.33;12.43;;;;;;;;;;10433702;28;20049;-70
2022/04/14 20:59:13;;;;;;;17.55;11.57;;;;;;;;;;10435187;28;20041;-69
2022/04/14 21:04:15;;;;;;;16.15;11.40;;;;;;;;;;10435414;28;20041;-68
2022/04/14 21:09:18;;;;;;;17.42;12.13;;;;;;;;;;10433861;28;20052;-72
2022/04/14 21:14:22;;;;;;;18.38;11.98;;;;;;;;;;10451465;28;20045;-71
2022/04/14 21:19:25;;;;;;;15.25;11.80;;;;;;;;;;10475855;28;20049;-71
2022/04/14 21:24:28;;;;;;;16.67;12.20;;;;;;;;;;10451090;28;20049;-73
2022/04/14 21:29:33;;;;;;;20.08;12.63;;;;;;;;;;10433825;28;20057;-70
2022/04/14 21:34:35;;;;;;;18.73;13.20;;;;;;;;;;10432373;28;20042;-71
2022/04/14 21:39:38;;;;;;;17.10;13.13;;;;;;;;;;10433174;28;20088;-71
2022/04/14 21:44:42;;;;;;;20.02;14.07;;;;;;;;;;10432682;28;20088;-71
2022/04/14 21:49:45;;;;;;;19.40;13.00;;;;;;;;;;10432936;28;20057;-71
2022/04/14 21:54:48;;;;;;;21.17;13.85;;;;;;;;;;10433720;28;20050;-69
2022/04/14 21:59:51;;;;;;;18.17;13.15;;;;;;;;;;10439637;28;20041;-69
2022/04/14 22:04:54;;;;;;;16.02;13.48;;;;;;;;;;10431787;28;20101;-73
2022/04/14 22:09:56;;;;;;;18.50;13.85;;;;;;;;;;10430480;28;20172;-69
2022/04/14 22:15:03;;;;;;;19.60;15.10;;;;;;;;;;10431839;28;20285;-72
2022/04/14 22:20:07;;;;;;;22.23;14.32;;;;;;;;;;10431913;28;20045;-69
2022/04/14 22:25:10;;;;;;;17.08;12.48;;;;;;;;;;10470246;28;20340;-69
2022/04/14 22:30:15;;;;;;;16.70;12.30;;;;;;;;;;10435026;28;20084;-69
2022/04/14 22:35:18;;;;;;;15.73;12.73;;;;;;;;;;10431103;28;20325;-72
2022/04/14 22:40:22;;;;;;;16.13;12.25;;;;;;;;;;10431211;28;20237;-68
2022/04/14 22:45:27;;;;;;;17.45;13.25;;;;;;;;;;10432184;28;20345;-68
2022/04/14 22:50:31;;;;;;;18.47;13.20;;;;;;;;;;10415465;28;20115;-69
2022/04/14 22:55:34;;;;;;;17.37;13.27;;;;;;;;;;10445813;28;20041;-69
2022/04/14 23:00:38;;;;;;;14.35;12.02;;;;;;;;;;10474848;28;20049;-68
2022/04/14 23:05:41;;;;;;;16.40;12.20;;;;;;;;;;10444898;28;20072;-71
2022/04/14 23:10:43;;;;;;;15.98;13.20;;;;;;;;;;10437835;28;20055;-71
2022/04/14 23:15:47;;;;;;;14.98;12.68;;;;;;;;;;10439360;28;20037;-73
2022/04/14 23:20:52;;;;;;;16.92;11.60;;;;;;;;;;10473750;28;20071;-72
2022/04/14 23:25:55;;;;;;;18.50;12.27;;;;;;;;;;10470319;28;20107;-71
2022/04/14 23:30:59;;;;;;;18.05;12.25;;;;;;;;;;10444183;28;20209;-72
2022/04/14 23:36:05;;;;;;;15.87;12.70;;;;;;;;;;10435565;28;20057;-72
2022/04/14 23:41:14;;;;;;;17.08;13.50;;;;;;;;;;10473689;28;20069;-72
2022/04/14 23:46:18;;;;;;;17.13;14.13;;;;;;;;;;10443396;28;20047;-72
2022/04/14 23:51:21;;;;;;;18.10;14.90;;;;;;;;;;10464354;28;20049;-72
2022/04/14 23:56:23;;;;;;;17.65;14.48;;;;;;;;;;10437819;28;20046;-72
